Time;durP1;ratioP1;P1;durP2;ratioP2;P2;SDS_P1;SDS_P2;PMS_P1;PMS_P2;Temp;Humidity;BMP_temperature;BMP_pressure;BME280_temperature;BME280_humidity;BME280_pressure;Samples;Min_cycle;Max_cycle;Signal;HPM_P1;HPM_P2
2022/07/25 00:00:33;;;;;;;;;;;;;;;21.59;95.73;101046.47;5053083;28;19932;-58
2022/07/25 00:02:59;;;;;;;;;;;;;;;21.58;95.90;101036.69;5053157;28;19921;-58
2022/07/25 00:05:24;;;;;;;;;;;;;;;21.56;96.25;101035.09;5053036;28;19912;-57
2022/07/25 00:07:49;;;;;;;;;;;;;;;21.52;96.88;101029.13;5052673;28;19921;-58
2022/07/25 00:10:15;;;;;;;;;;;;;;;21.47;97.12;101031.38;5034860;28;19921;-57
2022/07/25 00:12:40;;;;;;;;;;;;;;;21.41;97.88;101023.84;5052941;28;19916;-55
2022/07/25 00:15:05;;;;;;;;;;;;;;;21.35;99.09;101019.81;5052936;28;20013;-57
2022/07/25 00:17:31;;;;;;;;;;;;;;;21.33;100.00;101011.03;5052682;28;19955;-58
2022/07/25 00:19:56;;;;;;;;;;;;;;;21.31;100.00;101010.31;5052249;28;20368;-60
2022/07/25 00:22:21;;;;;;;;;;;;;;;21.32;100.00;101012.03;5052824;28;19928;-58
2022/07/25 00:24:46;;;;;;;;;;;;;;;21.32;100.00;101013.84;5052788;28;19923;-58
2022/07/25 00:27:12;;;;;;;;;;;;;;;21.31;100.00;101009.47;5052730;28;20416;-58
2022/07/25 00:29:37;;;;;;;;;;;;;;;21.27;100.00;101004.34;5052871;28;19932;-56
2022/07/25 00:32:02;;;;;;;;;;;;;;;21.25;100.00;101002.75;5052245;28;19928;-57
2022/07/25 00:34:27;;;;;;;;;;;;;;;21.25;100.00;101002.75;5052592;28;19916;-58
2022/07/25 00:36:53;;;;;;;;;;;;;;;21.27;100.00;101003.50;5052533;28;19921;-58
2022/07/25 00:39:18;;;;;;;;;;;;;;;21.26;100.00;101002.63;5052063;28;19921;-57
2022/07/25 00:41:43;;;;;;;;;;;;;;;21.24;100.00;100991.16;5052447;28;19932;-58
2022/07/25 00:44:08;;;;;;;;;;;;;;;21.23;100.00;100986.75;5052362;28;19917;-56
2022/07/25 00:46:36;;;;;;;;;;;;;;;21.19;100.00;100974.53;5052494;28;19917;-57
2022/07/25 00:49:01;;;;;;;;;;;;;;;21.17;100.00;100979.19;5052217;28;19938;-57
2022/07/25 00:51:27;;;;;;;;;;;;;;;21.18;100.00;100980.06;5052004;28;19947;-56
2022/07/25 00:53:52;;;;;;;;;;;;;;;21.18;100.00;100985.47;5052166;28;19928;-57
2022/07/25 00:56:17;;;;;;;;;;;;;;;21.18;100.00;100974.69;5052253;28;19924;-57
2022/07/25 00:58:44;;;;;;;;;;;;;;;21.18;100.00;100961.22;5034130;28;19924;-57
2022/07/25 01:01:09;;;;;;;;;;;;;;;21.17;100.00;100968.44;5051439;28;19924;-56
2022/07/25 01:03:34;;;;;;;;;;;;;;;21.17;100.00;100954.13;5034144;28;19917;-57
2022/07/25 01:06:00;;;;;;;;;;;;;;;21.16;100.00;100947.03;5052234;28;20376;-56
2022/07/25 01:08:25;;;;;;;;;;;;;;;21.11;100.00;100953.69;5034139;28;20257;-57
2022/07/25 01:10:51;;;;;;;;;;;;;;;21.16;100.00;100945.19;5051815;28;19927;-58
2022/07/25 01:13:16;;;;;;;;;;;;;;;21.21;100.00;100948.31;5051684;28;20347;-57
2022/07/25 01:15:41;;;;;;;;;;;;;;;21.21;100.00;100950.16;5051992;28;19913;-56
2022/07/25 01:18:07;;;;;;;;;;;;;;;21.19;100.00;100949.44;5052003;28;19917;-57
2022/07/25 01:20:32;;;;;;;;;;;;;;;21.21;100.00;100953.69;5051576;28;19920;-57
2022/07/25 01:22:58;;;;;;;;;;;;;;;21.21;100.00;100942.09;5051283;28;20340;-57
2022/07/25 01:25:24;;;;;;;;;;;;;;;21.20;100.00;100943.94;5051912;28;19921;-57
2022/07/25 01:27:50;;;;;;;;;;;;;;;21.17;100.00;100941.50;5051985;28;19913;-57
2022/07/25 01:30:16;;;;;;;;;;;;;;;21.14;100.00;100944.47;5052195;28;19917;-55
2022/07/25 01:32:41;;;;;;;;;;;;;;;21.12;100.00;100938.38;5055819;28;19924;-57
2022/07/25 01:35:07;;;;;;;;;;;;;;;21.04;100.00;100928.28;5037943;28;20392;-57
2022/07/25 01:37:32;;;;;;;;;;;;;;;21.01;100.00;100912.41;5056148;28;20519;-57
2022/07/25 01:39:58;;;;;;;;;;;;;;;20.96;100.00;100911.97;5056160;28;20363;-57
2022/07/25 01:42:23;;;;;;;;;;;;;;;20.95;100.00;100915.63;5055737;28;19921;-58
2022/07/25 01:44:48;;;;;;;;;;;;;;;20.94;100.00;100913.91;5037609;28;19920;-58
2022/07/25 01:47:15;;;;;;;;;;;;;;;20.95;100.00;100902.16;5055675;28;19917;-57
2022/07/25 01:49:41;;;;;;;;;;;;;;;20.94;100.00;100901.28;5055411;28;20016;-57
2022/07/25 01:52:06;;;;;;;;;;;;;;;20.94;100.00;100908.53;5055607;28;20303;-57
2022/07/25 01:54:31;;;;;;;;;;;;;;;20.92;100.00;100908.69;5055847;28;19913;-58
2022/07/25 01:56:57;;;;;;;;;;;;;;;20.91;100.00;100901.59;5055467;28;19970;-58
2022/07/25 01:59:24;;;;;;;;;;;;;;;20.91;100.00;100904.28;5036861;28;20387;-57
2022/07/25 02:01:49;;;;;;;;;;;;;;;20.91;100.00;100895.34;5054804;28;20015;-57
2022/07/25 02:04:14;;;;;;;;;;;;;;;20.91;100.00;100887.28;5055130;28;19973;-57
2022/07/25 02:06:40;;;;;;;;;;;;;;;20.87;100.00;100889.38;5055499;28;20451;-57
2022/07/25 02:09:06;;;;;;;;;;;;;;;20.84;100.00;100891.50;5055386;28;19936;-57
2022/07/25 02:11:31;;;;;;;;;;;;;;;20.82;100.00;100883.56;5055152;28;20007;-56
2022/07/25 02:13:57;;;;;;;;;;;;;;;20.83;100.00;100885.28;5054908;28;20007;-56
2022/07/25 02:16:22;;;;;;;;;;;;;;;20.84;100.00;100878.88;5037267;28;20358;-57
2022/07/25 02:18:47;;;;;;;;;;;;;;;20.89;100.00;100873.94;5055162;28;20442;-56
2022/07/25 02:21:12;;;;;;;;;;;;;;;20.97;100.00;100872.41;5053588;28;19927;-54
2022/07/25 02:23:38;;;;;;;;;;;;;;;21.03;100.00;100870.03;5037004;28;19968;-57
2022/07/25 02:26:03;;;;;;;;;;;;;;;21.11;100.00;100863.94;5055076;28;20290;-57
2022/07/25 02:28:29;;;;;;;;;;;;;;;21.17;100.00;100866.09;5037571;28;19956;-56
2022/07/25 02:30:54;;;;;;;;;;;;;;;21.24;100.00;100869.97;5054809;28;19913;-56
2022/07/25 02:33:19;;;;;;;;;;;;;;;21.30;100.00;100857.78;5054559;28;19924;-56
2022/07/25 02:35:44;;;;;;;;;;;;;;;21.35;100.00;100857.38;5036633;28;19920;-57
2022/07/25 02:38:10;;;;;;;;;;;;;;;21.33;100.00;100853.94;5054694;28;19917;-57
2022/07/25 02:40:35;;;;;;;;;;;;;;;21.28;100.00;100846.31;5054623;28;19917;-55
2022/07/25 02:43:00;;;;;;;;;;;;;;;21.16;100.00;100847.41;5036720;28;19921;-56
2022/07/25 02:45:25;;;;;;;;;;;;;;;21.04;100.00;100852.88;5054173;28;19928;-57
2022/07/25 02:47:51;;;;;;;;;;;;;;;20.98;100.00;100847.22;5054494;28;19917;-57
2022/07/25 02:50:16;;;;;;;;;;;;;;;20.92;100.00;100840.50;5054494;28;19913;-57
2022/07/25 02:52:42;;;;;;;;;;;;;;;20.84;100.00;100835.81;5054448;28;19916;-57
2022/07/25 02:55:07;;;;;;;;;;;;;;;20.79;100.00;100841.63;5036597;28;20335;-57
2022/07/25 02:57:33;;;;;;;;;;;;;;;20.77;100.00;100843.59;5054244;28;19925;-57
2022/07/25 02:59:58;;;;;;;;;;;;;;;20.77;100.00;100851.66;5036182;28;19936;-57
2022/07/25 03:02:23;;;;;;;;;;;;;;;20.78;100.00;100847.13;5054027;28;19986;-56
2022/07/25 03:04:48;;;;;;;;;;;;;;;20.85;100.00;100855.53;5054149;28;19917;-57
2022/07/25 03:07:14;;;;;;;;;;;;;;;20.90;100.00;100846.03;5053912;28;20012;-57
2022/07/25 03:09:39;;;;;;;;;;;;;;;20.98;100.00;100852.59;5054216;28;19948;-57
2022/07/25 03:12:04;;;;;;;;;;;;;;;20.99;100.00;100852.44;5054116;28;19917;-57
2022/07/25 03:14:29;;;;;;;;;;;;;;;20.94;100.00;100849.31;5053684;28;19943;-57
2022/07/25 03:16:54;;;;;;;;;;;;;;;20.97;100.00;100851.72;5035501;28;19999;-56
2022/07/25 03:19:20;;;;;;;;;;;;;;;21.06;100.00;100852.75;5053899;28;19924;-57
2022/07/25 03:21:45;;;;;;;;;;;;;;;21.12;99.64;100849.50;5053892;28;19920;-57
2022/07/25 03:24:10;;;;;;;;;;;;;;;21.20;98.30;100856.91;5053591;28;19928;-58
2022/07/25 03:26:35;;;;;;;;;;;;;;;21.26;97.20;100850.97;5053728;28;19917;-57
2022/07/25 03:29:01;;;;;;;;;;;;;;;21.29;96.88;100847.97;5053446;28;19921;-57
2022/07/25 03:31:27;;;;;;;;;;;;;;;21.32;95.56;100841.47;5035851;28;19917;-57
2022/07/25 03:33:52;;;;;;;;;;;;;;;21.34;94.81;100834.09;5053653;28;19920;-58
2022/07/25 03:36:18;;;;;;;;;;;;;;;21.36;94.49;100841.06;5053353;28;19917;-58
2022/07/25 03:38:43;;;;;;;;;;;;;;;21.36;95.02;100857.22;5035574;28;19929;-58
2022/07/25 03:41:08;;;;;;;;;;;;;;;21.38;94.50;100854.38;5053427;28;20376;-57
2022/07/25 03:43:33;;;;;;;;;;;;;;;21.37;94.75;100840.06;5053590;28;19913;-57
2022/07/25 03:45:59;;;;;;;;;;;;;;;21.36;95.03;100845.59;5035559;28;19942;-58
2022/07/25 03:48:24;;;;;;;;;;;;;;;21.38;94.63;100849.00;5035381;28;20304;-56
2022/07/25 03:50:49;;;;;;;;;;;;;;;21.39;94.01;100846.16;5035663;28;19917;-56
2022/07/25 03:53:14;;;;;;;;;;;;;;;21.41;93.04;100846.03;5052976;28;19971;-57
2022/07/25 03:55:39;;;;;;;;;;;;;;;21.41;92.55;100844.19;5035200;28;20384;-56
2022/07/25 03:58:05;;;;;;;;;;;;;;;21.38;92.28;100836.41;5053331;28;20380;-56
2022/07/25 04:00:31;;;;;;;;;;;;;;;21.37;92.11;100834.69;5052605;28;19979;-57
2022/07/25 04:02:56;;;;;;;;;;;;;;;21.36;92.18;100841.06;5053259;28;20372;-57
2022/07/25 04:05:21;;;;;;;;;;;;;;;21.34;92.54;100839.50;5035070;28;20019;-57
2022/07/25 04:07:47;;;;;;;;;;;;;;;21.28;93.49;100839.06;5047740;28;19921;-57
2022/07/25 04:10:12;;;;;;;;;;;;;;;21.23;94.15;100835.94;5047335;28;19924;-57
2022/07/25 04:12:37;;;;;;;;;;;;;;;21.18;94.73;100829.28;5051078;28;19924;-58
2022/07/25 04:15:03;;;;;;;;;;;;;;;21.15;95.31;100822.31;5051858;28;20003;-57
2022/07/25 04:17:28;;;;;;;;;;;;;;;21.11;96.04;100839.72;5052789;28;19923;-58
2022/07/25 04:19:54;;;;;;;;;;;;;;;21.11;96.43;100828.94;5034731;28;19932;-57
2022/07/25 04:22:19;;;;;;;;;;;;;;;21.11;95.61;100837.03;5052660;28;19923;-58
2022/07/25 04:24:44;;;;;;;;;;;;;;;21.12;94.84;100827.97;5052789;28;19920;-56
2022/07/25 04:27:10;;;;;;;;;;;;;;;21.09;95.45;100817.50;5052126;28;20295;-57
2022/07/25 04:29:35;;;;;;;;;;;;;;;21.07;95.58;100825.69;5035093;28;20390;-58
2022/07/25 04:32:00;;;;;;;;;;;;;;;21.05;95.40;100830.38;5052580;28;20366;-58
2022/07/25 04:34:25;;;;;;;;;;;;;;;21.07;95.32;100819.44;5052691;28;19917;-57
2022/07/25 04:36:50;;;;;;;;;;;;;;;21.09;95.58;100818.31;5034246;28;19921;-58
2022/07/25 04:39:16;;;;;;;;;;;;;;;21.14;95.84;100815.22;5050752;28;19921;-57
2022/07/25 04:41:41;;;;;;;;;;;;;;;21.21;95.60;100813.66;5018017;28;20007;-56
2022/07/25 04:44:07;;;;;;;;;;;;;;;21.27;95.77;100812.28;5034651;28;19948;-57
2022/07/25 04:46:32;;;;;;;;;;;;;;;21.32;95.78;100806.44;5052189;28;20368;-58
2022/07/25 04:48:57;;;;;;;;;;;;;;;21.37;96.07;100812.28;5052453;28;20300;-56
2022/07/25 04:51:22;;;;;;;;;;;;;;;21.44;96.18;100817.00;5051935;28;19928;-57
2022/07/25 04:53:48;;;;;;;;;;;;;;;21.48;95.83;100820.22;5052389;28;19921;-58
2022/07/25 04:56:13;;;;;;;;;;;;;;;21.52;95.88;100828.88;5052014;28;19977;-56
2022/07/25 04:58:38;;;;;;;;;;;;;;;21.55;95.67;100826.78;5051647;28;19928;-58
2022/07/25 05:01:03;;;;;;;;;;;;;;;21.57;96.34;100815.88;5052362;28;19921;-57
2022/07/25 05:03:29;;;;;;;;;;;;;;;21.60;96.02;100810.22;5051974;28;20007;-56
2022/07/25 05:05:54;;;;;;;;;;;;;;;21.64;95.58;100811.63;5032338;28;19917;-57
2022/07/25 05:08:19;;;;;;;;;;;;;;;21.64;96.28;100821.53;5051410;28;19921;-57
2022/07/25 05:10:44;;;;;;;;;;;;;;;21.67;95.51;100827.50;5033550;28;20376;-55
2022/07/25 05:13:10;;;;;;;;;;;;;;;21.69;94.91;100816.56;5051293;28;19920;-56
2022/07/25 05:15:35;;;;;;;;;;;;;;;21.74;94.32;100820.56;5052081;28;19917;-56
2022/07/25 05:18:00;;;;;;;;;;;;;;;21.72;93.85;100819.84;5051911;28;20376;-56
2022/07/25 05:20:26;;;;;;;;;;;;;;;21.75;93.01;100813.31;5051953;28;19927;-57
2022/07/25 05:22:51;;;;;;;;;;;;;;;21.80;92.92;100815.59;5051350;28;20368;-57
2022/07/25 05:25:16;;;;;;;;;;;;;;;21.89;91.07;100812.91;5034178;28;19916;-56
2022/07/25 05:27:42;;;;;;;;;;;;;;;21.97;88.62;100825.66;5051775;28;19963;-57
2022/07/25 05:30:08;;;;;;;;;;;;;;;22.07;87.76;100825.63;5049464;28;19921;-57
2022/07/25 05:32:34;;;;;;;;;;;;;;;22.13;86.02;100819.66;5051302;28;19924;-57
2022/07/25 05:34:59;;;;;;;;;;;;;;;22.13;84.74;100825.06;5050049;28;19925;-57
2022/07/25 05:37:24;;;;;;;;;;;;;;;22.22;84.80;100829.56;5050042;28;19916;-57
2022/07/25 05:39:50;;;;;;;;;;;;;;;22.29;84.30;100823.59;5050435;28;19931;-58
2022/07/25 05:42:15;;;;;;;;;;;;;;;22.42;83.13;100830.41;5033883;28;19917;-58
2022/07/25 05:44:40;;;;;;;;;;;;;;;22.50;83.11;100826.97;5034582;28;20463;-57
2022/07/25 05:47:12;;;;;;;;;;;;;;;22.60;82.77;100832.34;5051447;28;20020;-58
2022/07/25 05:49:37;;;;;;;;;;;;;;;22.62;81.10;100821.41;5049687;28;19925;-59
2022/07/25 05:52:02;;;;;;;;;;;;;;;;;;5051782;28;20423;-57
2022/07/25 05:54:27;;;;;;;;;;;;;;;;;;5051494;28;20287;-58
2022/07/25 05:56:53;;;;;;;;;;;;;;;22.49;85.02;100835.22;5051327;28;19920;-58
2022/07/25 05:59:18;;;;;;;;;;;;;;;22.46;86.19;100835.53;5051121;28;19924;-58
2022/07/25 06:01:43;;;;;;;;;;;;;;;22.53;87.64;100836.63;5030520;28;19932;-58
2022/07/25 06:04:08;;;;;;;;;;;;;;;22.48;88.89;100838.91;5033631;28;19921;-58
2022/07/25 06:06:34;;;;;;;;;;;;;;;22.53;89.21;100832.09;5046755;28;19921;-59
2022/07/25 06:08:59;;;;;;;;;;;;;;;22.34;91.09;100827.56;5049443;28;19964;-58
2022/07/25 06:11:26;;;;;;;;;;;;;;;22.09;93.44;100835.28;5049102;28;19916;-59
2022/07/25 06:13:52;;;;;;;;;;;;;;;21.92;96.49;100838.72;5031722;28;19920;-58
2022/07/25 06:16:17;;;;;;;;;;;;;;;21.74;98.72;100838.56;5045817;28;19921;-59
2022/07/25 06:18:42;;;;;;;;;;;;;;;21.69;100.00;100819.28;5054881;28;19925;-58
2022/07/25 06:21:08;;;;;;;;;;;;;;;21.67;100.00;100838.28;5037216;28;20498;-58
2022/07/25 06:23:33;;;;;;;;;;;;;;;21.58;100.00;100831.88;5054644;28;19927;-58
2022/07/25 06:25:59;;;;;;;;;;;;;;;21.55;100.00;100818.72;5035914;28;20015;-57
2022/07/25 06:28:24;;;;;;;;;;;;;;;21.63;100.00;100833.34;5036830;28;19920;-57
2022/07/25 06:30:49;;;;;;;;;;;;;;;21.62;100.00;100827.06;5054762;28;20054;-57
2022/07/25 06:33:14;;;;;;;;;;;;;;;21.64;100.00;100835.88;5036160;28;20008;-58
2022/07/25 06:35:39;;;;;;;;;;;;;;;21.67;100.00;100838.28;5046301;28;19921;-58
2022/07/25 06:38:05;;;;;;;;;;;;;;;21.68;100.00;100823.81;5035459;28;19921;-58
2022/07/25 06:40:30;;;;;;;;;;;;;;;21.70;100.00;100838.00;5032807;28;20020;-57
2022/07/25 06:42:55;;;;;;;;;;;;;;;21.70;100.00;100834.44;5052773;28;19924;-59
2022/07/25 06:45:21;;;;;;;;;;;;;;;21.68;100.00;100836.47;5050252;28;21011;-58
2022/07/25 06:47:46;;;;;;;;;;;;;;;21.72;100.00;100836.00;5052106;28;19959;-59
2022/07/25 06:50:13;;;;;;;;;;;;;;;21.81;100.00;100834.31;5051739;28;19975;-58
2022/07/25 06:52:38;;;;;;;;;;;;;;;21.91;100.00;100835.16;5033640;28;19921;-58
2022/07/25 06:55:04;;;;;;;;;;;;;;;21.89;100.00;100823.69;5052185;28;19974;-58
2022/07/25 06:57:29;;;;;;;;;;;;;;;21.91;100.00;100834.31;5054024;28;19998;-58
2022/07/25 06:59:55;;;;;;;;;;;;;;;21.93;100.00;100833.19;5052782;28;19925;-58
2022/07/25 07:02:20;;;;;;;;;;;;;;;21.86;100.00;100834.72;5053313;28;19963;-58
2022/07/25 07:04:45;;;;;;;;;;;;;;;21.83;100.00;100837.72;5035553;28;19956;-59
2022/07/25 07:07:11;;;;;;;;;;;;;;;21.84;100.00;100841.25;5053346;28;20373;-59
2022/07/25 07:09:36;;;;;;;;;;;;;;;21.73;100.00;100839.56;5050121;28;19917;-58
2022/07/25 07:12:01;;;;;;;;;;;;;;;21.60;100.00;100843.38;5050306;28;20012;-59
2022/07/25 07:14:27;;;;;;;;;;;;;;;21.38;100.00;100849.88;5048687;28;19929;-59
2022/07/25 07:16:52;;;;;;;;;;;;;;;21.31;100.00;100858.63;5050152;28;19940;-57
2022/07/25 07:19:17;;;;;;;;;;;;;;;21.36;100.00;100856.38;5040373;28;19928;-57
2022/07/25 07:21:43;;;;;;;;;;;;;;;21.38;100.00;100849.88;5049432;28;19978;-57
2022/07/25 07:24:08;;;;;;;;;;;;;;;21.40;100.00;100855.94;5054673;28;19960;-57
2022/07/25 07:26:33;;;;;;;;;;;;;;;21.48;100.00;100860.63;5053631;28;19952;-55
2022/07/25 07:28:59;;;;;;;;;;;;;;;21.56;100.00;100862.66;5052597;28;19925;-58
2022/07/25 07:31:24;;;;;;;;;;;;;;;21.75;100.00;100859.13;5053548;28;19921;-57
2022/07/25 07:33:50;;;;;;;;;;;;;;;21.90;100.00;100873.03;5034987;28;20393;-57
2022/07/25 07:36:15;;;;;;;;;;;;;;;22.03;100.00;100854.72;5053512;28;19917;-58
2022/07/25 07:38:43;;;;;;;;;;;;;;;22.24;100.00;100859.97;5053326;28;19917;-58
2022/07/25 07:41:08;;;;;;;;;;;;;;;22.30;100.00;100863.06;5052945;28;19917;-57
2022/07/25 07:43:34;;;;;;;;;;;;;;;22.16;100.00;100846.34;5052568;28;19924;-57
2022/07/25 07:45:59;;;;;;;;;;;;;;;22.10;100.00;100853.16;5053146;28;20388;-57
2022/07/25 07:48:25;;;;;;;;;;;;;;;21.95;100.00;100848.38;5034534;28;19928;-58
2022/07/25 07:50:51;;;;;;;;;;;;;;;21.86;100.00;100850.06;5053198;28;19995;-59
2022/07/25 07:53:16;;;;;;;;;;;;;;;21.86;100.00;100845.53;5049749;28;19920;-59
2022/07/25 07:55:44;;;;;;;;;;;;;;;21.89;100.00;100847.94;5052242;28;19950;-58
2022/07/25 07:58:17;;;;;;;;;;;;;;;22.09;100.00;100848.75;5052455;28;20287;-56
2022/07/25 08:00:46;;;;;;;;;;;;;;;22.48;100.00;100845.19;5035038;28;20372;-57
2022/07/25 08:03:12;;;;;;;;;;;;;;;22.69;97.66;100853.06;5034454;28;19920;-58
2022/07/25 08:05:39;;;;;;;;;;;;;;;22.70;96.55;100851.22;5052394;28;19916;-58
2022/07/25 08:08:05;;;;;;;;;;;;;;;22.73;94.69;100859.00;5052752;28;19923;-58
2022/07/25 08:10:31;;;;;;;;;;;;;;;22.92;92.63;100836.47;5052535;28;19920;-58
2022/07/25 08:12:57;;;;;;;;;;;;;;;23.04;92.88;100829.88;5053018;28;19916;-59
2022/07/25 08:15:22;;;;;;;;;;;;;;;23.03;93.24;100828.19;5034270;28;20394;-59
2022/07/25 08:17:49;;;;;;;;;;;;;;;23.14;93.54;100835.22;5052304;28;19920;-59
2022/07/25 08:20:15;;;;;;;;;;;;;;;23.33;91.71;100842.38;5028283;28;19933;-59
2022/07/25 08:22:44;;;;;;;;;;;;;;;23.58;92.50;100848.03;5052353;28;19923;-59
2022/07/25 08:25:12;;;;;;;;;;;;;;;24.00;90.18;100849.28;5033941;28;20021;-58
2022/07/25 08:27:38;;;;;;;;;;;;;;;24.15;86.40;100855.00;5052357;28;20614;-58
2022/07/25 08:30:04;;;;;;;;;;;;;;;24.23;84.68;100865.84;5052348;28;20368;-58
2022/07/25 08:32:29;;;;;;;;;;;;;;;24.15;85.79;100863.09;5051889;28;20042;-58
2022/07/25 08:34:55;;;;;;;;;;;;;;;24.31;83.87;100854.25;5050251;28;20000;-58
2022/07/25 08:37:21;;;;;;;;;;;;;;;24.48;84.63;100856.06;5033035;28;20292;-54
2022/07/25 08:39:47;;;;;;;;;;;;;;;24.60;82.46;100856.63;5033972;28;19975;-58
2022/07/25 08:42:12;;;;;;;;;;;;;;;24.58;82.38;100863.22;5051981;28;20442;-58
2022/07/25 08:44:39;;;;;;;;;;;;;;;24.83;80.79;100870.47;5051581;28;19928;-58
2022/07/25 08:47:06;;;;;;;;;;;;;;;25.11;79.72;100869.44;5051141;28;20399;-58
2022/07/25 08:49:31;;;;;;;;;;;;;;;24.94;78.55;100863.13;5052315;28;19920;-50
2022/07/25 08:51:56;;;;;;;;;;;;;;;25.07;77.92;100870.78;5050148;28;19917;-59
2022/07/25 08:54:22;;;;;;;;;;;;;;;24.59;77.96;100859.50;5032538;28;19925;-59
2022/07/25 08:56:47;;;;;;;;;;;;;;;24.04;80.76;100864.19;5051901;28;19928;-47
2022/07/25 08:59:12;;;;;;;;;;;;;;;23.63;83.38;100853.84;5051629;28;19920;-59
2022/07/25 09:01:38;;;;;;;;;;;;;;;23.53;83.49;100850.34;5051268;28;19927;-58
2022/07/25 09:04:03;;;;;;;;;;;;;;;23.26;84.71;100860.19;5032998;28;20011;-60
2022/07/25 09:06:29;;;;;;;;;;;;;;;23.19;85.30;100856.41;5051572;28;19916;-58
2022/07/25 09:08:55;;;;;;;;;;;;;;;23.36;85.35;100869.09;5050736;28;19960;-58
2022/07/25 09:11:28;;;;;;;;;;;;;;;23.42;85.95;100858.69;5031992;28;19971;-59
2022/07/25 09:14:04;;;;;;;;;;;;;;;23.34;86.26;100864.88;5050610;28;19920;-59
2022/07/25 09:16:34;;;;;;;;;;;;;;;23.40;85.56;100864.22;5033451;28;19920;-58
2022/07/25 09:19:06;;;;;;;;;;;;;;;23.45;86.27;100880.84;5051059;28;19956;-58
2022/07/25 09:21:31;;;;;;;;;;;;;;;23.75;84.75;100881.50;5039732;28;19920;-58
2022/07/25 09:24:06;;;;;;;;;;;;;;;23.14;86.81;100897.34;5050479;28;19917;-58
2022/07/25 09:26:41;;;;;;;;;;;;;;;22.91;88.35;100896.88;5047614;28;19939;-59
2022/07/25 09:29:06;;;;;;;;;;;;;;;22.74;89.66;100902.03;5049797;28;20332;-58
2022/07/25 09:31:33;;;;;;;;;;;;;;;22.94;88.22;100895.72;5050257;28;19956;-58
2022/07/25 09:34:00;;;;;;;;;;;;;;;23.93;83.66;100886.94;5033495;28;19916;-59
2022/07/25 09:36:25;;;;;;;;;;;;;;;24.42;79.82;100888.34;5051339;28;19923;-59
2022/07/25 09:38:55;;;;;;;;;;;;;;;25.52;76.91;100891.28;5051238;28;19920;-59
2022/07/25 09:41:21;;;;;;;;;;;;;;;26.65;72.30;100896.06;5051396;28;19917;-59
2022/07/25 09:43:46;;;;;;;;;;;;;;;27.11;67.80;100906.31;5051748;28;19923;-59
2022/07/25 09:46:12;;;;;;;;;;;;;;;27.25;67.08;100907.44;5050900;28;19917;-59
2022/07/25 09:48:39;;;;;;;;;;;;;;;26.94;65.74;100899.22;5051828;28;19999;-59
2022/07/25 09:51:05;;;;;;;;;;;;;;;26.42;65.42;100897.78;5051247;28;20031;-59
2022/07/25 09:53:31;;;;;;;;;;;;;;;26.68;62.78;100875.84;5037694;28;20375;-58
2022/07/25 09:55:57;;;;;;;;;;;;;;;27.64;60.18;100892.13;5055281;28;19971;-58
2022/07/25 09:58:26;;;;;;;;;;;;;;;28.54;52.75;100897.84;5055000;28;19921;-58
2022/07/25 10:00:54;;;;;;;;;;;;;;;29.19;51.89;100919.97;5055067;28;19921;-59
2022/07/25 10:03:29;;;;;;;;;;;;;;;29.37;51.42;100909.53;5054914;28;20029;-59
2022/07/25 10:06:01;;;;;;;;;;;;;;;29.19;49.82;100909.91;5054829;28;19928;-59
2022/07/25 10:08:27;;;;;;;;;;;;;;;27.39;55.17;100918.59;5037003;28;19923;-59
2022/07/25 10:10:52;;;;;;;;;;;;;;;26.06;60.40;100920.69;5037504;28;19917;-58
2022/07/25 10:13:27;;;;;;;;;;;;;;;25.54;60.68;100935.34;5054821;28;19920;-58
2022/07/25 10:15:53;;;;;;;;;;;;;;;24.77;63.07;100929.88;5054527;28;19916;-58
2022/07/25 10:18:19;;;;;;;;;;;;;;;24.42;65.78;100948.72;5037328;28;20288;-58
2022/07/25 10:20:46;;;;;;;;;;;;;;;23.88;69.86;100938.72;5054720;28;20398;-59
2022/07/25 10:23:18;;;;;;;;;;;;;;;23.69;71.92;100944.28;5054896;28;19970;-58
2022/07/25 10:25:43;;;;;;;;;;;;;;;23.52;71.18;100932.44;5054058;28;19917;-58
2022/07/25 10:28:09;;;;;;;;;;;;;;;23.62;73.17;100943.19;5036309;28;19965;-58
2022/07/25 10:30:34;;;;;;;;;;;;;;;23.52;72.13;100936.00;5054929;28;19920;-58
2022/07/25 10:33:00;;;;;;;;;;;;;;;23.42;72.69;100942.47;5054843;28;19924;-58
2022/07/25 10:35:27;;;;;;;;;;;;;;;23.53;73.04;100953.91;5054171;28;19924;-58
2022/07/25 10:37:53;;;;;;;;;;;;;;;23.72;71.46;100960.19;5054739;28;19921;-58
2022/07/25 10:40:48;;;;;;;;;;;;;;;23.77;71.29;100965.16;5054437;28;20368;-58
2022/07/25 10:43:17;;;;;;;;;;;;;;;23.64;68.75;100950.13;5041304;28;19920;-57
2022/07/25 10:45:47;;;;;;;;;;;;;;;23.46;69.88;100971.72;5054042;28;19923;-58
2022/07/25 10:48:19;;;;;;;;;;;;;;;23.43;70.61;100971.16;5036737;28;19934;-58
2022/07/25 10:50:49;;;;;;;;;;;;;;;23.72;70.17;100962.88;5054397;28;19923;-58
2022/07/25 10:53:14;;;;;;;;;;;;;;;23.93;67.44;100975.34;5054437;28;19916;-58
2022/07/25 10:55:40;;;;;;;;;;;;;;;24.12;66.80;100968.91;5053691;28;20008;-58
2022/07/25 10:58:05;;;;;;;;;;;;;;;24.44;67.55;100964.78;5036003;28;20039;-58
2022/07/25 11:00:31;;;;;;;;;;;;;;;24.29;68.70;100959.09;5036524;28;19925;-58
2022/07/25 11:02:57;;;;;;;;;;;;;;;24.27;69.64;100964.69;5052732;28;20368;-58
2022/07/25 11:05:22;;;;;;;;;;;;;;;24.10;69.73;100965.53;5053347;28;20007;-58
2022/07/25 11:07:51;;;;;;;;;;;;;;;23.90;70.70;100976.44;5034918;28;20284;-59
2022/07/25 11:10:24;;;;;;;;;;;;;;;23.47;68.52;100973.44;5054347;28;19920;-57
2022/07/25 11:12:49;;;;;;;;;;;;;;;23.04;72.03;100981.13;5054034;28;20372;-57
2022/07/25 11:15:14;;;;;;;;;;;;;;;23.05;73.14;100981.97;5019930;28;19969;-57
2022/07/25 11:17:48;;;;;;;;;;;;;;;23.07;71.42;100966.47;5053319;28;20351;-58
2022/07/25 11:20:15;;;;;;;;;;;;;;;23.21;70.59;100975.94;5053784;28;19921;-57
2022/07/25 11:22:40;;;;;;;;;;;;;;;23.30;70.26;100964.28;5053605;28;19917;-58
2022/07/25 11:25:10;;;;;;;;;;;;;;;23.59;71.48;100984.88;5054126;28;19913;-59
2022/07/25 11:27:36;;;;;;;;;;;;;;;23.77;66.35;100967.84;5053610;28;19919;-58
2022/07/25 11:30:18;;;;;;;;;;;;;;;23.48;65.19;100991.34;5053371;28;20003;-58
2022/07/25 11:32:54;;;;;;;;;;;;;;;23.59;67.66;100989.44;5050799;28;19930;-58
2022/07/25 11:35:22;;;;;;;;;;;;;;;23.84;61.23;100996.00;5035644;28;19944;-58
2022/07/25 11:37:49;;;;;;;;;;;;;;;23.15;60.92;100982.81;5035249;28;20372;-58
2022/07/25 11:40:15;;;;;;;;;;;;;;;23.12;62.18;101006.53;5035786;28;19920;-58
2022/07/25 11:42:42;;;;;;;;;;;;;;;23.46;59.86;100996.03;5053238;28;20365;-57
2022/07/25 11:45:16;;;;;;;;;;;;;;;23.85;57.43;100979.63;5052677;28;19920;-56
2022/07/25 11:47:41;;;;;;;;;;;;;;;24.42;55.82;100997.44;5053485;28;19912;-57
2022/07/25 11:50:09;;;;;;;;;;;;;;;24.84;56.32;100994.06;5053347;28;19924;-56
2022/07/25 11:52:36;;;;;;;;;;;;;;;25.08;54.01;100994.38;5052774;28;19917;-58
2022/07/25 11:55:01;;;;;;;;;;;;;;;25.51;51.28;101001.59;5053018;28;19925;-58
2022/07/25 11:57:30;;;;;;;;;;;;;;;25.34;51.01;101003.31;5052629;28;19928;-58
2022/07/25 11:59:56;;;;;;;;;;;;;;;24.47;53.41;100995.09;5052709;28;19920;-58
2022/07/25 12:02:26;;;;;;;;;;;;;;;24.44;55.01;101014.38;5052943;28;19966;-57
2022/07/25 12:04:55;;;;;;;;;;;;;;;25.04;55.83;101002.00;5052864;28;19913;-58
2022/07/25 12:07:20;;;;;;;;;;;;;;;25.99;53.08;100996.47;5034778;28;20339;-59
2022/07/25 12:09:54;;;;;;;;;;;;;;;26.36;48.69;100990.78;5052405;28;19967;-59
2022/07/25 12:12:19;;;;;;;;;;;;;;;26.09;49.44;100993.66;5052600;28;19951;-58
2022/07/25 12:14:44;;;;;;;;;;;;;;;25.93;49.06;101005.25;5034650;28;20291;-58
2022/07/25 12:17:10;;;;;;;;;;;;;;;26.05;47.70;100997.72;5052640;28;20281;-58
2022/07/25 12:19:38;;;;;;;;;;;;;;;26.20;48.11;101003.31;5052573;28;20388;-59
2022/07/25 12:22:03;;;;;;;;;;;;;;;25.87;48.57;100984.25;5052453;28;19924;-59
2022/07/25 12:24:29;;;;;;;;;;;;;;;25.66;49.37;100982.81;5053047;28;19949;-59
2022/07/25 12:26:54;;;;;;;;;;;;;;;25.66;49.29;100988.25;5052486;28;19924;-59